createdAt,value
2023-04-22T00:02:14.671Z,4.03
2023-04-22T00:04:41.841Z,3.70
2023-04-22T00:07:09.010Z,3.80
2023-04-22T00:09:36.106Z,4.00
2023-04-22T00:12:03.131Z,4.03
2023-04-22T00:14:29.851Z,4.17
2023-04-22T00:16:57.188Z,4.00
2023-04-22T00:19:24.260Z,4.00
2023-04-22T00:21:51.230Z,3.70
2023-04-22T00:24:17.968Z,4.07
2023-04-22T00:26:44.580Z,4.30
2023-04-22T00:29:11.229Z,3.90
2023-04-22T00:31:38.310Z,3.80
2023-04-22T00:34:05.089Z,3.67
2023-04-22T00:36:31.972Z,3.87
2023-04-22T00:38:58.624Z,4.00
2023-04-22T00:41:26.110Z,3.77
2023-04-22T00:43:53.574Z,3.80
2023-04-22T00:46:21.076Z,4.27
2023-04-22T00:48:47.999Z,4.13
2023-04-22T00:51:14.629Z,4.10
2023-04-22T00:53:41.240Z,3.40
2023-04-22T00:56:07.992Z,4.07
2023-04-22T00:58:34.759Z,3.67
2023-04-22T01:01:01.488Z,3.70
2023-04-22T01:03:30.475Z,3.70
2023-04-22T01:05:58.192Z,3.67
2023-04-22T01:08:29.834Z,4.07
2023-04-22T01:10:57.448Z,4.30
2023-04-22T01:13:24.101Z,3.57
2023-04-22T01:15:53.096Z,3.80
2023-04-22T01:18:20.194Z,3.70
2023-04-22T01:20:46.829Z,3.87
2023-04-22T01:23:20.069Z,4.10
2023-04-22T01:25:47.776Z,4.20
2023-04-22T01:28:15.763Z,4.07
2023-04-22T01:30:43.442Z,3.77
2023-04-22T01:33:11.520Z,3.90
2023-04-22T01:35:38.443Z,3.63
2023-04-22T01:38:06.622Z,4.20
2023-04-22T01:40:33.760Z,3.90
2023-04-22T01:43:01.612Z,4.03
2023-04-22T01:45:28.504Z,3.90
2023-04-22T01:47:55.754Z,4.10
2023-04-22T01:50:22.951Z,4.00
2023-04-22T01:52:49.948Z,4.03
2023-04-22T01:55:16.761Z,3.83
2023-04-22T01:57:43.567Z,4.17
2023-04-22T02:00:11.340Z,4.13
2023-04-22T02:02:38.174Z,4.43
2023-04-22T02:05:07.293Z,4.10
2023-04-22T02:07:34.389Z,4.07
2023-04-22T02:10:02.014Z,4.27
2023-04-22T02:12:28.695Z,3.63
2023-04-22T02:14:55.348Z,4.03
2023-04-22T02:17:22.190Z,4.10
2023-04-22T02:19:48.889Z,3.90
2023-04-22T02:22:15.767Z,3.73
2023-04-22T02:24:43.076Z,4.07
2023-04-22T02:27:09.906Z,4.07
2023-04-22T02:29:36.548Z,4.40
2023-04-22T02:32:03.191Z,4.13
2023-04-22T02:34:29.777Z,4.07
2023-04-22T02:36:56.440Z,4.10
2023-04-22T02:39:23.057Z,3.50
2023-04-22T02:41:49.696Z,4.00
2023-04-22T02:44:16.298Z,4.03
2023-04-22T02:46:42.953Z,3.97
2023-04-22T02:49:09.588Z,4.30
2023-04-22T02:51:38.690Z,4.03
2023-04-22T02:54:05.561Z,4.17
2023-04-22T02:56:32.227Z,4.00
2023-04-22T02:58:58.846Z,4.50
2023-04-22T03:01:25.648Z,4.00
2023-04-22T03:03:52.581Z,4.63
2023-04-22T03:06:19.341Z,4.53
2023-04-22T03:08:45.936Z,4.53
2023-04-22T03:11:13.729Z,4.57
2023-04-22T03:13:40.587Z,4.13
2023-04-22T03:16:07.494Z,4.23
2023-04-22T03:18:34.138Z,4.70
2023-04-22T03:21:00.935Z,4.20
2023-04-22T03:23:27.531Z,4.27
2023-04-22T03:25:54.135Z,4.07
2023-04-22T03:28:20.846Z,4.60
2023-04-22T03:30:48.387Z,4.17
2023-04-22T03:33:15.059Z,4.03
2023-04-22T03:35:41.782Z,4.13
2023-04-22T03:38:08.485Z,4.37
2023-04-22T03:40:35.110Z,4.23
2023-04-22T03:43:03.459Z,3.97
2023-04-22T03:45:30.207Z,4.17
2023-04-22T03:47:57.010Z,4.67
2023-04-22T03:50:23.744Z,4.23
2023-04-22T03:52:50.362Z,4.27
2023-04-22T03:55:16.990Z,4.23
2023-04-22T03:57:43.603Z,3.90
2023-04-22T04:00:10.762Z,4.63
2023-04-22T04:02:37.679Z,4.17
2023-04-22T04:05:05.223Z,4.37
2023-04-22T04:07:32.222Z,4.10
2023-04-22T04:09:58.824Z,4.70
2023-04-22T04:12:25.438Z,4.17
2023-04-22T04:14:52.027Z,4.43
2023-04-22T04:17:18.716Z,4.47
2023-04-22T04:19:45.361Z,4.40
2023-04-22T04:22:12.013Z,5.10
2023-04-22T04:24:41.793Z,3.87
2023-04-22T04:27:08.935Z,4.10
2023-04-22T04:29:36.748Z,4.40
2023-04-22T04:32:04.808Z,4.17
2023-04-22T04:34:34.370Z,3.97
2023-04-22T04:37:01.135Z,3.93
2023-04-22T04:39:29.146Z,3.97
2023-04-22T04:41:58.479Z,3.90
2023-04-22T04:44:26.341Z,4.00
2023-04-22T04:46:54.674Z,3.83
2023-04-22T04:49:21.565Z,4.13
2023-04-22T04:51:48.200Z,3.83
2023-04-22T04:54:15.223Z,4.07
2023-04-22T04:56:42.070Z,4.43
2023-04-22T04:59:08.801Z,3.90
2023-04-22T05:01:35.649Z,4.00
2023-04-22T05:04:02.464Z,3.80
2023-04-22T05:06:29.406Z,3.63
2023-04-22T05:08:56.026Z,4.60
2023-04-22T05:11:22.748Z,4.17
2023-04-22T05:13:49.368Z,4.23
2023-04-22T05:16:16.161Z,3.70
2023-04-22T05:18:42.820Z,3.57
2023-04-22T05:21:09.503Z,3.90
2023-04-22T05:23:36.219Z,3.63
2023-04-22T05:26:02.897Z,3.90
2023-04-22T05:28:29.533Z,3.67
2023-04-22T05:30:56.416Z,3.70
2023-04-22T05:33:23.018Z,3.50
2023-04-22T05:35:51.104Z,3.23
2023-04-22T05:38:17.736Z,3.47
2023-04-22T05:40:44.361Z,3.30
2023-04-22T05:43:10.957Z,3.17
2023-04-22T05:45:37.711Z,3.37
2023-04-22T05:48:04.415Z,3.70
2023-04-22T05:50:31.041Z,3.30
2023-04-22T05:52:57.643Z,3.20
2023-04-22T05:55:24.263Z,3.20
2023-04-22T05:57:51.416Z,2.70
2023-04-22T06:00:18.425Z,3.00
2023-04-22T06:02:45.184Z,3.00
2023-04-22T06:05:12.049Z,2.73
2023-04-22T06:07:38.748Z,2.60
2023-04-22T06:10:05.925Z,2.93
2023-04-22T06:12:34.375Z,2.60
2023-04-22T06:15:01.058Z,2.50
2023-04-22T06:17:27.898Z,2.90
2023-04-22T06:19:54.820Z,2.63
2023-04-22T06:22:21.592Z,2.50
2023-04-22T06:24:48.368Z,2.77
2023-04-22T06:27:17.456Z,3.20
2023-04-22T06:29:44.145Z,3.27
2023-04-22T06:32:10.779Z,2.80
2023-04-22T06:34:38.638Z,3.67
2023-04-22T06:37:05.582Z,3.17
2023-04-22T06:39:32.197Z,3.23
2023-04-22T06:41:58.885Z,3.20
2023-04-22T06:44:25.856Z,3.10
2023-04-22T06:46:53.337Z,3.40
2023-04-22T06:49:20.912Z,3.20
2023-04-22T06:51:47.501Z,3.33
2023-04-22T06:54:14.111Z,2.90
2023-04-22T06:56:40.817Z,4.23
2023-04-22T06:59:07.796Z,3.70
2023-04-22T07:01:34.505Z,3.90
2023-04-22T07:04:01.135Z,3.97
2023-04-22T07:06:27.932Z,4.47
2023-04-22T07:08:54.863Z,4.13
2023-04-22T07:11:21.542Z,3.60
2023-04-22T07:13:48.449Z,3.83
2023-04-22T07:16:15.100Z,3.37
2023-04-22T07:18:41.748Z,3.97
2023-04-22T07:21:08.358Z,3.80
2023-04-22T07:23:34.982Z,3.63
2023-04-22T07:26:01.962Z,3.67
2023-04-22T07:28:28.685Z,3.30
2023-04-22T07:30:55.327Z,3.63
2023-04-22T07:33:22.099Z,3.20
2023-04-22T07:35:48.877Z,3.63
2023-04-22T07:38:15.546Z,3.70
2023-04-22T07:40:42.172Z,3.07
2023-04-22T07:43:08.837Z,4.10
2023-04-22T07:45:35.632Z,3.43
2023-04-22T07:48:02.537Z,2.80
2023-04-22T07:50:29.241Z,3.33
2023-04-22T07:52:56.027Z,3.23
2023-04-22T07:55:22.681Z,3.40
2023-04-22T07:57:49.498Z,2.73
2023-04-22T08:00:16.951Z,3.20
2023-04-22T08:02:44.140Z,3.17
2023-04-22T08:05:11.526Z,2.87
2023-04-22T08:07:38.301Z,3.80
2023-04-22T08:10:05.991Z,3.57
2023-04-22T08:12:32.639Z,3.30
2023-04-22T08:14:59.303Z,3.10
2023-04-22T08:17:26.292Z,3.20
2023-04-22T08:19:53.076Z,3.13
2023-04-22T08:22:19.899Z,3.23
2023-04-22T08:24:46.512Z,3.57
2023-04-22T08:27:13.307Z,3.20
2023-04-22T08:29:40.061Z,3.13
2023-04-22T08:32:07.010Z,3.10
2023-04-22T08:34:33.664Z,3.33
2023-04-22T08:37:00.296Z,3.73
2023-04-22T08:39:26.981Z,3.00
2023-04-22T08:41:55.395Z,3.57
2023-04-22T08:44:23.190Z,3.57
2023-04-22T08:46:51.380Z,3.07
2023-04-22T08:49:19.430Z,3.50
2023-04-22T08:51:46.314Z,3.03
2023-04-22T08:54:13.013Z,2.90
2023-04-22T08:56:44.842Z,2.93
2023-04-22T08:59:12.209Z,2.90
2023-04-22T09:01:42.863Z,3.10
2023-04-22T09:04:11.387Z,3.20
2023-04-22T09:06:39.088Z,3.40
2023-04-22T09:09:08.217Z,3.10
2023-04-22T09:11:35.937Z,2.67
2023-04-22T09:14:06.139Z,2.70
2023-04-22T09:16:41.368Z,2.80
2023-04-22T09:19:12.091Z,2.80
2023-04-22T09:21:40.638Z,3.43
2023-04-22T09:24:09.264Z,2.90
2023-04-22T09:26:40.982Z,2.87
2023-04-22T09:29:10.933Z,2.80
2023-04-22T09:31:37.898Z,2.50
2023-04-22T09:34:05.186Z,2.80
2023-04-22T09:36:37.497Z,2.90
2023-04-22T09:39:07.263Z,2.93
2023-04-22T09:41:36.551Z,2.60
2023-04-22T09:44:05.345Z,2.60
2023-04-22T09:46:33.803Z,2.90
2023-04-22T09:49:01.078Z,2.60
2023-04-22T09:51:29.276Z,3.10
2023-04-22T09:54:06.126Z,2.67
2023-04-22T09:56:59.029Z,2.53
2023-04-22T09:59:28.186Z,3.07
2023-04-22T10:02:00.704Z,2.50
2023-04-22T10:04:28.096Z,2.30
2023-04-22T10:06:55.886Z,2.60
2023-04-22T10:09:25.206Z,2.17
2023-04-22T10:11:53.968Z,2.30
2023-04-22T10:14:23.702Z,2.30
2023-04-22T10:16:54.643Z,2.87
2023-04-22T10:19:23.365Z,2.53
2023-04-22T10:21:56.536Z,2.50
2023-04-22T10:24:26.893Z,2.50
2023-04-22T10:27:06.628Z,2.43
2023-04-22T10:29:39.342Z,2.50
2023-04-22T10:32:25.300Z,1.97
2023-04-22T10:35:09.081Z,2.67
2023-04-22T10:37:35.866Z,2.43
2023-04-22T10:40:17.402Z,1.77
2023-04-22T10:42:50.062Z,1.80
2023-04-22T10:45:16.768Z,2.13
2023-04-22T10:47:44.177Z,2.00
2023-04-22T10:50:38.218Z,1.77
2023-04-22T10:53:36.299Z,1.87
2023-04-22T10:56:17.708Z,2.20
2023-04-22T10:58:44.417Z,1.93
2023-04-22T11:01:16.905Z,1.50
2023-04-22T11:03:43.639Z,2.00
2023-04-22T11:06:22.349Z,1.80
2023-04-22T11:08:50.263Z,1.67
2023-04-22T11:11:18.598Z,2.27
2023-04-22T11:13:50.158Z,1.60
2023-04-22T11:16:17.213Z,1.70
2023-04-22T11:18:46.914Z,1.70
2023-04-22T11:21:14.406Z,1.80
2023-04-22T11:23:52.866Z,1.30
2023-04-22T11:26:32.135Z,1.43
2023-04-22T11:29:00.432Z,1.50
2023-04-22T11:31:27.195Z,1.60
2023-04-22T11:33:53.841Z,1.50
2023-04-22T11:36:21.807Z,1.90
2023-04-22T11:38:56.108Z,1.60
2023-04-22T11:41:23.633Z,1.50
2023-04-22T11:43:50.340Z,1.30
2023-04-22T11:46:27.397Z,1.30
2023-04-22T11:48:54.047Z,1.47
2023-04-22T11:51:20.648Z,1.30
2023-04-22T11:53:51.309Z,1.50
2023-04-22T11:56:17.905Z,1.67
2023-04-22T11:58:44.509Z,1.70
2023-04-22T12:01:14.023Z,1.50
2023-04-22T12:03:40.874Z,1.60
2023-04-22T12:06:07.649Z,1.50
2023-04-22T12:08:36.833Z,1.47
2023-04-22T12:11:06.279Z,1.57
2023-04-22T12:13:43.390Z,1.67
2023-04-22T12:16:20.172Z,1.80
2023-04-22T12:18:54.882Z,1.70
2023-04-22T12:21:24.584Z,1.50
2023-04-22T12:23:54.060Z,1.50
2023-04-22T12:26:26.210Z,1.40
2023-04-22T12:28:54.791Z,1.57
2023-04-22T12:31:21.594Z,1.53
2023-04-22T12:33:48.440Z,5.20
2023-04-22T12:36:15.389Z,14.10
2023-04-22T12:38:42.010Z,45.30
2023-04-22T12:41:08.804Z,19.38
2023-04-22T12:43:36.824Z,6.13
2023-04-22T12:46:04.893Z,4.13
2023-04-22T12:48:32.027Z,2.37
2023-04-22T12:50:59.381Z,15.70
2023-04-22T12:53:27.658Z,62.40
2023-04-22T12:55:54.973Z,43.37
2023-04-22T12:58:21.687Z,3.10
2023-04-22T13:00:48.340Z,7.17
2023-04-22T13:03:15.204Z,2.33
2023-04-22T13:05:41.931Z,1.80
2023-04-22T13:08:08.707Z,1.60
2023-04-22T13:10:36.076Z,1.60
2023-04-22T13:13:17.092Z,1.37
2023-04-22T13:15:45.753Z,1.60
2023-04-22T13:18:12.448Z,1.60
2023-04-22T13:20:39.961Z,1.70
2023-04-22T13:23:06.618Z,1.50
2023-04-22T13:25:33.294Z,1.90
2023-04-22T13:28:00.133Z,1.50
2023-04-22T13:30:26.837Z,1.33
2023-04-22T13:32:53.573Z,1.70
2023-04-22T13:35:20.687Z,1.30
2023-04-22T13:37:47.288Z,1.70
2023-04-22T13:40:13.946Z,2.10
2023-04-22T13:42:40.722Z,1.60
2023-04-22T13:45:08.018Z,1.63
2023-04-22T13:47:34.697Z,1.50
2023-04-22T13:50:01.879Z,1.80
2023-04-22T13:52:29.100Z,1.57
2023-04-22T13:54:55.760Z,1.80
2023-04-22T13:57:23.127Z,1.57
2023-04-22T13:59:50.596Z,1.40
2023-04-22T14:02:17.738Z,1.50
2023-04-22T14:04:44.526Z,1.43
2023-04-22T14:07:11.863Z,1.63
2023-04-22T14:09:39.287Z,1.50
2023-04-22T14:12:07.660Z,1.33
2023-04-22T14:14:34.479Z,1.40
2023-04-22T14:17:01.218Z,1.50
2023-04-22T14:19:30.058Z,1.48
2023-04-22T14:21:56.871Z,1.30
2023-04-22T14:24:24.212Z,1.17
2023-04-22T14:26:54.561Z,1.43
2023-04-22T14:29:21.846Z,1.17
2023-04-22T14:31:49.753Z,1.30
2023-04-22T14:34:16.926Z,1.10
2023-04-22T14:36:46.966Z,1.10
2023-04-22T14:39:13.698Z,1.03
2023-04-22T14:41:40.752Z,1.10
2023-04-22T14:44:07.416Z,1.00
2023-04-22T14:46:34.126Z,1.20
2023-04-22T14:49:00.955Z,1.13
2023-04-22T14:51:28.982Z,1.30
2023-04-22T14:53:56.110Z,1.27
2023-04-22T14:56:22.970Z,1.07
2023-04-22T14:58:49.661Z,1.20
2023-04-22T15:01:16.861Z,0.90
2023-04-22T15:03:44.570Z,1.10
2023-04-22T15:06:11.825Z,1.00
2023-04-22T15:08:38.577Z,0.90
2023-04-22T15:11:05.337Z,1.20
2023-04-22T15:13:31.932Z,0.90
2023-04-22T15:15:59.062Z,1.13
2023-04-22T15:18:26.343Z,1.30
2023-04-22T15:20:52.955Z,1.57
2023-04-22T15:23:19.546Z,1.20
2023-04-22T15:25:46.394Z,1.30
2023-04-22T15:28:13.679Z,1.10
2023-04-22T15:30:40.689Z,0.90
2023-04-22T15:33:07.413Z,0.97
2023-04-22T15:35:34.047Z,1.10
2023-04-22T15:38:02.112Z,1.37
2023-04-22T15:40:28.732Z,1.47
2023-04-22T15:42:55.403Z,1.47
2023-04-22T15:45:22.090Z,1.20
2023-04-22T15:47:48.840Z,1.40
2023-04-22T15:50:15.583Z,1.40
2023-04-22T15:52:42.393Z,1.40
2023-04-22T15:55:09.350Z,1.50
2023-04-22T15:57:36.259Z,1.17
2023-04-22T16:00:11.970Z,1.30
2023-04-22T16:02:40.972Z,1.43
2023-04-22T16:05:08.187Z,1.20
2023-04-22T16:07:35.170Z,1.13
2023-04-22T16:10:02.154Z,1.50
2023-04-22T16:12:29.601Z,1.43
2023-04-22T16:14:56.742Z,1.17
2023-04-22T16:17:23.414Z,1.43
2023-04-22T16:19:50.174Z,1.50
2023-04-22T16:22:16.799Z,1.40
2023-04-22T16:24:44.351Z,1.50
2023-04-22T16:27:16.058Z,1.40
2023-04-22T16:29:42.961Z,1.63
2023-04-22T16:32:10.204Z,1.60
2023-04-22T16:34:37.984Z,1.47
2023-04-22T16:37:04.679Z,1.83
2023-04-22T16:39:31.281Z,1.63
2023-04-22T16:41:58.699Z,1.87
2023-04-22T16:44:25.325Z,1.63
2023-04-22T16:46:51.895Z,1.60
2023-04-22T16:49:18.573Z,1.50
2023-04-22T16:51:45.178Z,1.30
2023-04-22T16:54:11.811Z,1.70
2023-04-22T16:56:38.425Z,1.50
2023-04-22T16:59:05.209Z,1.60
2023-04-22T17:01:31.951Z,1.53
2023-04-22T17:03:58.731Z,1.60
2023-04-22T17:06:27.863Z,1.83
2023-04-22T17:08:54.513Z,1.30
2023-04-22T17:11:21.878Z,1.50
2023-04-22T17:13:48.562Z,1.70
2023-04-22T17:16:15.364Z,1.43
2023-04-22T17:18:42.153Z,1.60
2023-04-22T17:21:09.121Z,1.60
2023-04-22T17:23:36.132Z,1.60
2023-04-22T17:26:02.821Z,1.70
2023-04-22T17:28:29.504Z,1.30
2023-04-22T17:30:56.271Z,1.60
2023-04-22T17:33:23.162Z,1.30
2023-04-22T17:35:49.790Z,1.60
2023-04-22T17:38:16.455Z,1.70
2023-04-22T17:40:43.641Z,1.60
2023-04-22T17:43:10.668Z,1.40
2023-04-22T17:45:37.432Z,1.50
2023-04-22T17:48:05.004Z,1.47
2023-04-22T17:50:31.709Z,1.60
2023-04-22T17:52:58.376Z,1.50
2023-04-22T17:55:25.034Z,1.43
2023-04-22T17:57:51.634Z,1.27
2023-04-22T18:00:18.781Z,1.50
2023-04-22T18:02:45.675Z,1.17
2023-04-22T18:05:12.556Z,1.47
2023-04-22T18:07:39.533Z,1.63
2023-04-22T18:10:07.962Z,1.30
2023-04-22T18:12:35.334Z,1.60
2023-04-22T18:15:01.974Z,1.30
2023-04-22T18:17:28.603Z,1.50
2023-04-22T18:20:02.716Z,1.57
2023-04-22T18:22:33.028Z,1.57
2023-04-22T18:25:01.763Z,1.80
2023-04-22T18:27:28.803Z,1.87
2023-04-22T18:29:55.630Z,1.80
2023-04-22T18:32:22.399Z,1.73
2023-04-22T18:34:49.090Z,2.10
2023-04-22T18:37:16.111Z,2.20
2023-04-22T18:39:43.002Z,2.70
2023-04-22T18:42:09.672Z,2.70
2023-04-22T18:44:36.449Z,2.13
2023-04-22T18:47:04.447Z,2.43
2023-04-22T18:49:34.200Z,2.73
2023-04-22T18:52:01.026Z,2.63
2023-04-22T18:54:29.414Z,2.73
2023-04-22T18:57:00.057Z,2.80
2023-04-22T18:59:26.793Z,2.90
2023-04-22T19:01:54.061Z,2.53
2023-04-22T19:04:22.641Z,2.70
2023-04-22T19:06:49.682Z,2.80
2023-04-22T19:09:16.298Z,2.57
2023-04-22T19:11:43.087Z,2.40
2023-04-22T19:14:09.730Z,2.17
2023-04-22T19:16:36.365Z,2.50
2023-04-22T19:19:03.006Z,2.10
2023-04-22T19:21:29.932Z,2.20
2023-04-22T19:23:56.782Z,2.00
2023-04-22T19:26:23.439Z,2.20
2023-04-22T19:28:50.169Z,2.00
2023-04-22T19:31:17.280Z,2.30
2023-04-22T19:33:44.634Z,2.10
2023-04-22T19:36:11.310Z,1.90
2023-04-22T19:38:37.957Z,2.23
2023-04-22T19:41:04.611Z,2.30
2023-04-22T19:43:31.225Z,2.20
2023-04-22T19:45:58.334Z,2.33
2023-04-22T19:48:25.418Z,1.97
2023-04-22T19:50:52.133Z,2.30
2023-04-22T19:53:19.701Z,2.50
2023-04-22T19:55:46.470Z,1.97
2023-04-22T19:58:13.798Z,2.00
2023-04-22T20:00:42.266Z,2.17
2023-04-22T20:03:10.045Z,2.57
2023-04-22T20:05:37.492Z,2.37
2023-04-22T20:08:08.049Z,2.10
2023-04-22T20:10:35.621Z,2.70
2023-04-22T20:13:04.289Z,2.63
2023-04-22T20:15:31.178Z,1.90
2023-04-22T20:17:57.918Z,2.10
2023-04-22T20:20:25.036Z,2.10
2023-04-22T20:22:52.894Z,2.07
2023-04-22T20:25:19.836Z,2.00
2023-04-22T20:27:46.954Z,1.67
2023-04-22T20:30:14.396Z,1.53
2023-04-22T20:32:41.771Z,1.90
2023-04-22T20:35:12.257Z,1.70
2023-04-22T20:37:39.920Z,1.57
2023-04-22T20:40:10.274Z,1.70
2023-04-22T20:42:36.944Z,1.60
2023-04-22T20:45:07.145Z,1.90
2023-04-22T20:47:33.950Z,1.60
2023-04-22T20:50:00.905Z,2.00
2023-04-22T20:52:27.775Z,1.90
2023-04-22T20:54:57.166Z,2.17
2023-04-22T20:57:24.099Z,2.10
2023-04-22T20:59:51.770Z,2.40
2023-04-22T21:02:20.950Z,4.33
2023-04-22T21:04:47.932Z,5.90
2023-04-22T21:07:16.043Z,5.10
2023-04-22T21:09:43.513Z,4.17
2023-04-22T21:12:10.761Z,4.73
2023-04-22T21:14:43.340Z,4.00
2023-04-22T21:17:20.437Z,3.93
2023-04-22T21:19:49.504Z,3.60
2023-04-22T21:22:21.038Z,2.93
2023-04-22T21:24:51.623Z,3.03
2023-04-22T21:27:19.507Z,3.10
2023-04-22T21:29:47.499Z,2.70
2023-04-22T21:32:14.470Z,2.70
2023-04-22T21:34:41.637Z,2.50
2023-04-22T21:37:08.741Z,2.50
2023-04-22T21:39:35.462Z,2.60
2023-04-22T21:42:07.889Z,2.37
2023-04-22T21:44:36.298Z,2.53
2023-04-22T21:47:03.565Z,2.53
2023-04-22T21:49:30.193Z,2.43
2023-04-22T21:51:57.028Z,2.90
2023-04-22T21:54:23.723Z,2.67
2023-04-22T21:56:50.843Z,2.50
2023-04-22T21:59:17.527Z,2.50
2023-04-22T22:01:44.267Z,2.30
2023-04-22T22:04:13.968Z,2.67
2023-04-22T22:06:42.336Z,2.33
2023-04-22T22:09:09.144Z,2.23
2023-04-22T22:11:36.014Z,2.50
2023-04-22T22:14:02.774Z,2.37
2023-04-22T22:16:29.673Z,2.50
2023-04-22T22:18:58.179Z,2.33
2023-04-22T22:21:25.093Z,2.53
2023-04-22T22:23:51.908Z,2.30
2023-04-22T22:26:19.008Z,2.30
2023-04-22T22:28:45.784Z,2.57
2023-04-22T22:31:12.366Z,2.37
2023-04-22T22:33:38.973Z,2.50
2023-04-22T22:36:05.898Z,2.30
2023-04-22T22:38:32.548Z,2.70
2023-04-22T22:40:59.158Z,2.43
2023-04-22T22:43:25.835Z,2.20
2023-04-22T22:45:52.844Z,2.67
2023-04-22T22:48:19.613Z,2.30
2023-04-22T22:50:46.507Z,2.67
2023-04-22T22:53:13.145Z,2.00
2023-04-22T22:55:39.791Z,2.40
2023-04-22T22:58:06.394Z,2.30
2023-04-22T23:00:33.058Z,2.30
2023-04-22T23:02:59.833Z,2.40
2023-04-22T23:05:27.146Z,2.20
2023-04-22T23:07:53.760Z,2.30
2023-04-22T23:10:20.709Z,2.33
2023-04-22T23:12:47.408Z,2.20
2023-04-22T23:15:14.026Z,2.53
2023-04-22T23:17:40.855Z,2.40
2023-04-22T23:20:09.874Z,2.30
2023-04-22T23:22:40.456Z,2.43
2023-04-22T23:25:08.448Z,2.43
2023-04-22T23:27:35.603Z,2.40
2023-04-22T23:30:02.864Z,2.40
2023-04-22T23:32:32.248Z,2.10
2023-04-22T23:35:01.614Z,2.20
2023-04-22T23:37:29.342Z,2.20
2023-04-22T23:39:56.195Z,2.40
2023-04-22T23:42:22.870Z,2.20
2023-04-22T23:44:49.739Z,2.23
2023-04-22T23:47:16.407Z,2.33
2023-04-22T23:49:43.135Z,2.30
2023-04-22T23:52:10.888Z,2.40
2023-04-22T23:54:37.761Z,2.53
2023-04-22T23:57:04.732Z,2.47
2023-04-22T23:59:31.653Z,2.50
